sensor_id;sensor_type;location;lat;lon;timestamp;temperature;humidity
48206;DHT22;33995;48.202;16.260;2023-07-16T00:00:16;24.70;99.90
48206;DHT22;33995;48.202;16.260;2023-07-16T00:02:49;24.70;99.90
48206;DHT22;33995;48.202;16.260;2023-07-16T00:05:16;24.60;99.90
48206;DHT22;33995;48.202;16.260;2023-07-16T00:07:43;24.60;99.90
48206;DHT22;33995;48.202;16.260;2023-07-16T00:10:10;24.60;99.90
48206;DHT22;33995;48.202;16.260;2023-07-16T00:12:38;24.60;99.90
48206;DHT22;33995;48.202;16.260;2023-07-16T00:15:05;24.50;99.90
48206;DHT22;33995;48.202;16.260;2023-07-16T00:17:34;24.50;99.90
48206;DHT22;33995;48.202;16.260;2023-07-16T00:20:02;24.50;99.90
48206;DHT22;33995;48.202;16.260;2023-07-16T00:22:29;24.50;99.90
48206;DHT22;33995;48.202;16.260;2023-07-16T00:24:56;24.50;99.90
48206;DHT22;33995;48.202;16.260;2023-07-16T00:27:23;24.40;99.90
48206;DHT22;33995;48.202;16.260;2023-07-16T00:29:50;24.40;99.90
48206;DHT22;33995;48.202;16.260;2023-07-16T00:32:17;24.30;99.90
48206;DHT22;33995;48.202;16.260;2023-07-16T00:34:45;24.30;99.90
48206;DHT22;33995;48.202;16.260;2023-07-16T00:37:12;24.30;99.90
48206;DHT22;33995;48.202;16.260;2023-07-16T00:39:39;24.30;99.90
48206;DHT22;33995;48.202;16.260;2023-07-16T00:42:06;24.30;99.90
48206;DHT22;33995;48.202;16.260;2023-07-16T00:44:34;24.30;99.90
48206;DHT22;33995;48.202;16.260;2023-07-16T00:47:02;24.30;99.90
48206;DHT22;33995;48.202;16.260;2023-07-16T00:49:29;24.30;99.90
48206;DHT22;33995;48.202;16.260;2023-07-16T00:51:58;24.30;99.90
48206;DHT22;33995;48.202;16.260;2023-07-16T00:54:26;24.20;99.90
48206;DHT22;33995;48.202;16.260;2023-07-16T00:56:54;24.20;99.90
48206;DHT22;33995;48.202;16.260;2023-07-16T00:59:21;24.20;99.90
48206;DHT22;33995;48.202;16.260;2023-07-16T01:01:49;24.10;99.90
48206;DHT22;33995;48.202;16.260;2023-07-16T01:04:16;24.10;99.90
48206;DHT22;33995;48.202;16.260;2023-07-16T01:06:49;24.10;99.90
48206;DHT22;33995;48.202;16.260;2023-07-16T01:09:18;24.10;99.90
48206;DHT22;33995;48.202;16.260;2023-07-16T01:11:47;24.10;99.90
48206;DHT22;33995;48.202;16.260;2023-07-16T01:14:16;24.10;99.90
48206;DHT22;33995;48.202;16.260;2023-07-16T01:16:47;24.10;99.90
48206;DHT22;33995;48.202;16.260;2023-07-16T01:19:15;24.00;99.90
48206;DHT22;33995;48.202;16.260;2023-07-16T01:30:51;23.90;99.90
48206;DHT22;33995;48.202;16.260;2023-07-16T01:33:21;23.90;99.90
48206;DHT22;33995;48.202;16.260;2023-07-16T01:35:48;23.90;99.90
48206;DHT22;33995;48.202;16.260;2023-07-16T01:38:17;23.90;99.90
48206;DHT22;33995;48.202;16.260;2023-07-16T01:40:47;23.90;99.90
48206;DHT22;33995;48.202;16.260;2023-07-16T01:43:14;23.90;99.90
48206;DHT22;33995;48.202;16.260;2023-07-16T01:45:41;23.80;99.90
48206;DHT22;33995;48.202;16.260;2023-07-16T01:48:30;23.80;99.90
48206;DHT22;33995;48.202;16.260;2023-07-16T01:50:58;23.80;99.90
48206;DHT22;33995;48.202;16.260;2023-07-16T01:53:25;23.70;99.90
48206;DHT22;33995;48.202;16.260;2023-07-16T01:55:52;23.70;99.90
48206;DHT22;33995;48.202;16.260;2023-07-16T01:58:20;23.60;99.90
48206;DHT22;33995;48.202;16.260;2023-07-16T02:00:49;23.60;99.90
48206;DHT22;33995;48.202;16.260;2023-07-16T02:03:18;23.60;99.90
48206;DHT22;33995;48.202;16.260;2023-07-16T02:05:45;23.60;99.90
48206;DHT22;33995;48.202;16.260;2023-07-16T02:08:12;23.50;99.90
48206;DHT22;33995;48.202;16.260;2023-07-16T02:10:39;23.50;99.90
48206;DHT22;33995;48.202;16.260;2023-07-16T02:13:05;23.50;99.90
48206;DHT22;33995;48.202;16.260;2023-07-16T02:15:34;23.50;99.90
48206;DHT22;33995;48.202;16.260;2023-07-16T02:18:03;23.50;99.90
48206;DHT22;33995;48.202;16.260;2023-07-16T02:20:30;23.50;99.90
48206;DHT22;33995;48.202;16.260;2023-07-16T02:22:58;23.50;99.90
48206;DHT22;33995;48.202;16.260;2023-07-16T02:25:26;23.50;99.90
48206;DHT22;33995;48.202;16.260;2023-07-16T02:27:53;23.40;99.90
48206;DHT22;33995;48.202;16.260;2023-07-16T02:30:20;23.40;99.90
48206;DHT22;33995;48.202;16.260;2023-07-16T02:32:47;23.30;99.90
48206;DHT22;33995;48.202;16.260;2023-07-16T02:35:15;23.30;99.90
48206;DHT22;33995;48.202;16.260;2023-07-16T02:37:43;23.20;99.90
48206;DHT22;33995;48.202;16.260;2023-07-16T02:40:11;23.20;99.90
48206;DHT22;33995;48.202;16.260;2023-07-16T02:42:41;23.20;99.90
48206;DHT22;33995;48.202;16.260;2023-07-16T02:45:08;23.20;99.90
48206;DHT22;33995;48.202;16.260;2023-07-16T02:47:35;23.20;99.90
48206;DHT22;33995;48.202;16.260;2023-07-16T02:50:02;23.10;99.90
48206;DHT22;33995;48.202;16.260;2023-07-16T02:52:31;23.00;99.90
48206;DHT22;33995;48.202;16.260;2023-07-16T02:54:57;23.00;99.90
48206;DHT22;33995;48.202;16.260;2023-07-16T02:57:24;23.00;99.90
48206;DHT22;33995;48.202;16.260;2023-07-16T02:59:51;23.00;99.90
48206;DHT22;33995;48.202;16.260;2023-07-16T03:02:19;23.00;99.90
48206;DHT22;33995;48.202;16.260;2023-07-16T03:04:46;23.00;99.90
48206;DHT22;33995;48.202;16.260;2023-07-16T03:07:14;23.00;99.90
48206;DHT22;33995;48.202;16.260;2023-07-16T03:09:43;23.00;99.90
48206;DHT22;33995;48.202;16.260;2023-07-16T03:12:10;23.00;99.90
48206;DHT22;33995;48.202;16.260;2023-07-16T03:14:37;22.90;99.90
48206;DHT22;33995;48.202;16.260;2023-07-16T03:17:06;22.90;99.90
48206;DHT22;33995;48.202;16.260;2023-07-16T03:19:33;22.80;99.90
48206;DHT22;33995;48.202;16.260;2023-07-16T03:22:00;22.80;99.90
48206;DHT22;33995;48.202;16.260;2023-07-16T03:24:28;22.70;99.90
48206;DHT22;33995;48.202;16.260;2023-07-16T03:26:56;22.70;99.90
48206;DHT22;33995;48.202;16.260;2023-07-16T03:29:44;22.60;99.90
48206;DHT22;33995;48.202;16.260;2023-07-16T03:32:14;22.50;99.90
48206;DHT22;33995;48.202;16.260;2023-07-16T03:34:40;22.50;99.90
48206;DHT22;33995;48.202;16.260;2023-07-16T03:37:11;22.50;99.90
48206;DHT22;33995;48.202;16.260;2023-07-16T03:39:38;22.50;99.90
48206;DHT22;33995;48.202;16.260;2023-07-16T03:42:05;22.40;99.90
48206;DHT22;33995;48.202;16.260;2023-07-16T03:44:32;22.30;99.90
48206;DHT22;33995;48.202;16.260;2023-07-16T03:47:00;22.30;99.90
48206;DHT22;33995;48.202;16.260;2023-07-16T03:49:27;22.20;99.90
48206;DHT22;33995;48.202;16.260;2023-07-16T03:51:54;22.30;99.90
48206;DHT22;33995;48.202;16.260;2023-07-16T03:54:21;22.30;99.90
48206;DHT22;33995;48.202;16.260;2023-07-16T03:56:48;22.20;99.90
48206;DHT22;33995;48.202;16.260;2023-07-16T03:59:17;22.30;99.90
48206;DHT22;33995;48.202;16.260;2023-07-16T04:01:45;22.30;99.90
48206;DHT22;33995;48.202;16.260;2023-07-16T04:04:13;22.30;99.90
48206;DHT22;33995;48.202;16.260;2023-07-16T04:06:43;22.30;99.90
48206;DHT22;33995;48.202;16.260;2023-07-16T04:09:10;22.30;99.90
48206;DHT22;33995;48.202;16.260;2023-07-16T04:11:37;22.30;99.90
48206;DHT22;33995;48.202;16.260;2023-07-16T04:14:03;22.30;99.90
48206;DHT22;33995;48.202;16.260;2023-07-16T04:16:30;22.40;99.90
48206;DHT22;33995;48.202;16.260;2023-07-16T04:18:59;22.40;99.90
48206;DHT22;33995;48.202;16.260;2023-07-16T04:21:26;22.30;99.90
48206;DHT22;33995;48.202;16.260;2023-07-16T04:23:54;22.30;99.90
48206;DHT22;33995;48.202;16.260;2023-07-16T04:26:22;22.40;99.90
48206;DHT22;33995;48.202;16.260;2023-07-16T04:28:49;22.40;99.90
48206;DHT22;33995;48.202;16.260;2023-07-16T04:31:16;22.50;99.90
48206;DHT22;33995;48.202;16.260;2023-07-16T04:33:44;22.50;99.90
48206;DHT22;33995;48.202;16.260;2023-07-16T04:36:12;22.60;99.90
48206;DHT22;33995;48.202;16.260;2023-07-16T04:38:40;22.60;99.90
48206;DHT22;33995;48.202;16.260;2023-07-16T04:41:08;22.50;99.90
48206;DHT22;33995;48.202;16.260;2023-07-16T04:43:35;22.50;99.90
48206;DHT22;33995;48.202;16.260;2023-07-16T04:46:04;22.60;99.90
48206;DHT22;33995;48.202;16.260;2023-07-16T04:48:31;22.70;99.90
48206;DHT22;33995;48.202;16.260;2023-07-16T04:50:59;22.70;99.90
48206;DHT22;33995;48.202;16.260;2023-07-16T04:53:26;22.70;99.90
48206;DHT22;33995;48.202;16.260;2023-07-16T04:55:53;22.70;99.90
48206;DHT22;33995;48.202;16.260;2023-07-16T04:58:21;22.80;99.90
48206;DHT22;33995;48.202;16.260;2023-07-16T05:00:48;22.90;99.90
48206;DHT22;33995;48.202;16.260;2023-07-16T05:03:16;22.90;99.90
48206;DHT22;33995;48.202;16.260;2023-07-16T05:05:44;23.00;99.90
48206;DHT22;33995;48.202;16.260;2023-07-16T05:08:11;23.10;99.90
48206;DHT22;33995;48.202;16.260;2023-07-16T05:10:38;23.20;99.90
48206;DHT22;33995;48.202;16.260;2023-07-16T05:13:05;23.30;99.90
48206;DHT22;33995;48.202;16.260;2023-07-16T05:15:35;23.40;99.90
48206;DHT22;33995;48.202;16.260;2023-07-16T05:18:02;23.40;99.90
48206;DHT22;33995;48.202;16.260;2023-07-16T05:20:30;23.50;99.90
48206;DHT22;33995;48.202;16.260;2023-07-16T05:22:57;23.60;99.90
48206;DHT22;33995;48.202;16.260;2023-07-16T05:25:26;23.70;99.90
48206;DHT22;33995;48.202;16.260;2023-07-16T05:27:57;23.80;99.90
48206;DHT22;33995;48.202;16.260;2023-07-16T05:30:24;23.80;99.90
48206;DHT22;33995;48.202;16.260;2023-07-16T05:32:51;23.80;99.90
48206;DHT22;33995;48.202;16.260;2023-07-16T05:35:18;23.90;99.90
48206;DHT22;33995;48.202;16.260;2023-07-16T05:37:44;23.90;99.90
48206;DHT22;33995;48.202;16.260;2023-07-16T05:40:11;24.00;99.90
48206;DHT22;33995;48.202;16.260;2023-07-16T05:42:40;24.00;99.90
48206;DHT22;33995;48.202;16.260;2023-07-16T05:45:07;24.10;99.90
48206;DHT22;33995;48.202;16.260;2023-07-16T05:47:35;24.10;99.90
48206;DHT22;33995;48.202;16.260;2023-07-16T05:50:02;24.20;99.90
48206;DHT22;33995;48.202;16.260;2023-07-16T05:52:30;24.20;99.90
48206;DHT22;33995;48.202;16.260;2023-07-16T05:54:59;24.30;99.90
48206;DHT22;33995;48.202;16.260;2023-07-16T05:57:26;24.30;99.90
48206;DHT22;33995;48.202;16.260;2023-07-16T05:59:53;24.40;99.90
48206;DHT22;33995;48.202;16.260;2023-07-16T06:02:22;24.50;99.90
48206;DHT22;33995;48.202;16.260;2023-07-16T06:04:49;24.60;99.90
48206;DHT22;33995;48.202;16.260;2023-07-16T06:07:16;24.60;99.90
48206;DHT22;33995;48.202;16.260;2023-07-16T06:09:44;24.70;99.90
48206;DHT22;33995;48.202;16.260;2023-07-16T06:12:12;24.70;99.90
48206;DHT22;33995;48.202;16.260;2023-07-16T06:14:40;24.80;99.90
48206;DHT22;33995;48.202;16.260;2023-07-16T06:17:07;24.90;99.90
48206;DHT22;33995;48.202;16.260;2023-07-16T06:19:35;25.00;99.90
48206;DHT22;33995;48.202;16.260;2023-07-16T06:22:02;25.10;99.90
48206;DHT22;33995;48.202;16.260;2023-07-16T06:24:31;25.20;99.90
48206;DHT22;33995;48.202;16.260;2023-07-16T06:26:58;25.30;99.90
48206;DHT22;33995;48.202;16.260;2023-07-16T06:29:26;25.30;99.90
48206;DHT22;33995;48.202;16.260;2023-07-16T06:31:57;25.30;99.90
48206;DHT22;33995;48.202;16.260;2023-07-16T06:34:27;25.40;99.90
48206;DHT22;33995;48.202;16.260;2023-07-16T06:36:54;25.60;99.90
48206;DHT22;33995;48.202;16.260;2023-07-16T06:39:21;25.60;99.90
48206;DHT22;33995;48.202;16.260;2023-07-16T06:41:48;25.70;99.90
48206;DHT22;33995;48.202;16.260;2023-07-16T06:44:15;25.70;99.90
48206;DHT22;33995;48.202;16.260;2023-07-16T06:46:45;25.80;99.90
48206;DHT22;33995;48.202;16.260;2023-07-16T06:49:12;25.90;99.90
48206;DHT22;33995;48.202;16.260;2023-07-16T06:51:39;26.00;99.90
48206;DHT22;33995;48.202;16.260;2023-07-16T06:54:07;26.10;99.90
48206;DHT22;33995;48.202;16.260;2023-07-16T06:56:34;26.10;99.90
48206;DHT22;33995;48.202;16.260;2023-07-16T06:59:01;26.20;99.90
48206;DHT22;33995;48.202;16.260;2023-07-16T07:01:28;26.20;99.90
48206;DHT22;33995;48.202;16.260;2023-07-16T07:03:55;26.30;99.90
48206;DHT22;33995;48.202;16.260;2023-07-16T07:06:22;26.40;99.90
48206;DHT22;33995;48.202;16.260;2023-07-16T07:08:52;26.40;99.90
48206;DHT22;33995;48.202;16.260;2023-07-16T07:11:19;26.60;99.90
48206;DHT22;33995;48.202;16.260;2023-07-16T07:13:46;26.60;99.90
48206;DHT22;33995;48.202;16.260;2023-07-16T07:16:13;26.60;99.90
48206;DHT22;33995;48.202;16.260;2023-07-16T07:18:40;26.70;99.90
48206;DHT22;33995;48.202;16.260;2023-07-16T07:21:07;26.90;99.90
48206;DHT22;33995;48.202;16.260;2023-07-16T07:23:37;27.00;99.90
48206;DHT22;33995;48.202;16.260;2023-07-16T07:26:04;27.10;99.90
48206;DHT22;33995;48.202;16.260;2023-07-16T07:28:31;27.20;99.90
48206;DHT22;33995;48.202;16.260;2023-07-16T07:30:58;27.30;99.90
48206;DHT22;33995;48.202;16.260;2023-07-16T07:33:26;27.40;99.90
48206;DHT22;33995;48.202;16.260;2023-07-16T07:35:55;27.60;99.90
48206;DHT22;33995;48.202;16.260;2023-07-16T07:38:24;27.80;99.90
48206;DHT22;33995;48.202;16.260;2023-07-16T07:40:53;27.90;99.90
48206;DHT22;33995;48.202;16.260;2023-07-16T07:43:21;28.10;99.90
48206;DHT22;33995;48.202;16.260;2023-07-16T07:45:51;28.10;99.90
48206;DHT22;33995;48.202;16.260;2023-07-16T07:48:18;28.20;99.90
48206;DHT22;33995;48.202;16.260;2023-07-16T07:50:46;28.30;99.90
48206;DHT22;33995;48.202;16.260;2023-07-16T07:53:16;28.50;99.90
48206;DHT22;33995;48.202;16.260;2023-07-16T07:55:46;28.60;99.90
48206;DHT22;33995;48.202;16.260;2023-07-16T07:58:13;28.70;99.90
48206;DHT22;33995;48.202;16.260;2023-07-16T08:00:40;28.80;99.90
48206;DHT22;33995;48.202;16.260;2023-07-16T08:03:06;28.90;99.90
48206;DHT22;33995;48.202;16.260;2023-07-16T08:05:34;29.00;99.90
48206;DHT22;33995;48.202;16.260;2023-07-16T08:08:03;28.90;99.90
48206;DHT22;33995;48.202;16.260;2023-07-16T08:10:31;29.00;99.90
48206;DHT22;33995;48.202;16.260;2023-07-16T08:12:58;29.20;99.90
48206;DHT22;33995;48.202;16.260;2023-07-16T08:15:25;29.30;99.90
48206;DHT22;33995;48.202;16.260;2023-07-16T08:17:52;29.30;99.90
48206;DHT22;33995;48.202;16.260;2023-07-16T08:20:19;29.50;99.90
48206;DHT22;33995;48.202;16.260;2023-07-16T08:22:46;29.60;99.90
48206;DHT22;33995;48.202;16.260;2023-07-16T08:25:13;29.70;99.90
48206;DHT22;33995;48.202;16.260;2023-07-16T08:27:40;29.70;99.90
48206;DHT22;33995;48.202;16.260;2023-07-16T08:30:07;29.70;99.90
48206;DHT22;33995;48.202;16.260;2023-07-16T08:32:34;29.80;99.90
48206;DHT22;33995;48.202;16.260;2023-07-16T08:35:01;29.80;99.90
48206;DHT22;33995;48.202;16.260;2023-07-16T08:37:28;29.80;99.90
48206;DHT22;33995;48.202;16.260;2023-07-16T08:39:55;29.70;99.90
48206;DHT22;33995;48.202;16.260;2023-07-16T08:42:23;29.70;99.90
48206;DHT22;33995;48.202;16.260;2023-07-16T08:44:50;29.80;99.90
48206;DHT22;33995;48.202;16.260;2023-07-16T08:47:18;29.90;99.90
48206;DHT22;33995;48.202;16.260;2023-07-16T08:49:55;29.90;99.90
48206;DHT22;33995;48.202;16.260;2023-07-16T08:52:26;29.80;99.90
48206;DHT22;33995;48.202;16.260;2023-07-16T08:54:54;29.90;99.90
48206;DHT22;33995;48.202;16.260;2023-07-16T08:57:22;30.00;99.90
48206;DHT22;33995;48.202;16.260;2023-07-16T08:59:50;30.10;99.90
48206;DHT22;33995;48.202;16.260;2023-07-16T09:02:18;30.10;99.90
48206;DHT22;33995;48.202;16.260;2023-07-16T09:04:49;30.20;99.90
48206;DHT22;33995;48.202;16.260;2023-07-16T09:07:16;30.30;99.90
48206;DHT22;33995;48.202;16.260;2023-07-16T09:09:43;30.30;99.90
48206;DHT22;33995;48.202;16.260;2023-07-16T09:12:13;30.40;99.90
48206;DHT22;33995;48.202;16.260;2023-07-16T09:14:43;30.40;99.90
48206;DHT22;33995;48.202;16.260;2023-07-16T09:17:10;30.40;99.90
48206;DHT22;33995;48.202;16.260;2023-07-16T09:19:37;30.50;99.90
48206;DHT22;33995;48.202;16.260;2023-07-16T09:22:04;30.50;99.90
48206;DHT22;33995;48.202;16.260;2023-07-16T09:24:33;30.60;99.90
48206;DHT22;33995;48.202;16.260;2023-07-16T09:27:00;30.60;99.90
48206;DHT22;33995;48.202;16.260;2023-07-16T09:29:29;30.70;99.90
48206;DHT22;33995;48.202;16.260;2023-07-16T09:32:00;30.70;99.90
48206;DHT22;33995;48.202;16.260;2023-07-16T09:34:30;30.80;99.90
48206;DHT22;33995;48.202;16.260;2023-07-16T09:37:00;30.80;99.90
48206;DHT22;33995;48.202;16.260;2023-07-16T09:39:28;30.80;99.90
48206;DHT22;33995;48.202;16.260;2023-07-16T09:41:55;30.80;99.90
48206;DHT22;33995;48.202;16.260;2023-07-16T09:44:24;30.80;99.90
48206;DHT22;33995;48.202;16.260;2023-07-16T09:46:51;30.90;99.90
48206;DHT22;33995;48.202;16.260;2023-07-16T09:49:19;30.90;99.90
48206;DHT22;33995;48.202;16.260;2023-07-16T09:51:46;31.00;99.90
48206;DHT22;33995;48.202;16.260;2023-07-16T09:54:15;31.10;99.90
48206;DHT22;33995;48.202;16.260;2023-07-16T09:56:49;31.20;99.90
48206;DHT22;33995;48.202;16.260;2023-07-16T09:59:23;31.20;99.90
48206;DHT22;33995;48.202;16.260;2023-07-16T10:01:55;31.40;99.90
48206;DHT22;33995;48.202;16.260;2023-07-16T10:04:24;31.50;99.90
48206;DHT22;33995;48.202;16.260;2023-07-16T10:06:52;31.60;99.90
48206;DHT22;33995;48.202;16.260;2023-07-16T10:12:25;31.50;99.90
48206;DHT22;33995;48.202;16.260;2023-07-16T10:14:53;31.50;99.90
48206;DHT22;33995;48.202;16.260;2023-07-16T10:17:24;31.60;99.90
48206;DHT22;33995;48.202;16.260;2023-07-16T10:19:59;31.80;99.90
48206;DHT22;33995;48.202;16.260;2023-07-16T10:22:40;31.80;99.90
48206;DHT22;33995;48.202;16.260;2023-07-16T10:25:22;31.70;99.90
48206;DHT22;33995;48.202;16.260;2023-07-16T10:27:52;31.70;99.90
48206;DHT22;33995;48.202;16.260;2023-07-16T10:30:20;31.80;99.90
48206;DHT22;33995;48.202;16.260;2023-07-16T10:32:47;31.90;99.90
48206;DHT22;33995;48.202;16.260;2023-07-16T10:35:14;31.90;99.90
48206;DHT22;33995;48.202;16.260;2023-07-16T10:37:42;32.00;99.90
48206;DHT22;33995;48.202;16.260;2023-07-16T10:40:14;32.00;99.90
48206;DHT22;33995;48.202;16.260;2023-07-16T10:42:43;32.00;99.90
48206;DHT22;33995;48.202;16.260;2023-07-16T10:45:13;32.00;99.90
48206;DHT22;33995;48.202;16.260;2023-07-16T10:47:52;31.80;99.90
48206;DHT22;33995;48.202;16.260;2023-07-16T10:50:20;31.80;99.90
48206;DHT22;33995;48.202;16.260;2023-07-16T10:52:56;31.90;99.90
48206;DHT22;33995;48.202;16.260;2023-07-16T10:55:25;31.90;99.90
48206;DHT22;33995;48.202;16.260;2023-07-16T10:57:52;31.90;99.90
48206;DHT22;33995;48.202;16.260;2023-07-16T11:00:21;32.00;99.90
48206;DHT22;33995;48.202;16.260;2023-07-16T11:02:51;31.90;99.90
48206;DHT22;33995;48.202;16.260;2023-07-16T11:05:19;31.90;99.90
48206;DHT22;33995;48.202;16.260;2023-07-16T11:07:47;31.90;99.90
48206;DHT22;33995;48.202;16.260;2023-07-16T11:10:22;32.00;99.90
48206;DHT22;33995;48.202;16.260;2023-07-16T11:12:53;32.00;99.90
48206;DHT22;33995;48.202;16.260;2023-07-16T11:15:32;31.90;99.90
48206;DHT22;33995;48.202;16.260;2023-07-16T11:18:02;32.00;99.90
48206;DHT22;33995;48.202;16.260;2023-07-16T11:20:30;32.10;99.90
48206;DHT22;33995;48.202;16.260;2023-07-16T11:23:01;32.20;99.90
48206;DHT22;33995;48.202;16.260;2023-07-16T11:25:32;32.20;99.90
48206;DHT22;33995;48.202;16.260;2023-07-16T11:28:01;32.30;99.90
48206;DHT22;33995;48.202;16.260;2023-07-16T11:30:28;32.30;99.90
48206;DHT22;33995;48.202;16.260;2023-07-16T11:32:58;32.30;99.90
48206;DHT22;33995;48.202;16.260;2023-07-16T11:35:25;32.30;99.90
48206;DHT22;33995;48.202;16.260;2023-07-16T11:37:54;32.20;99.90
48206;DHT22;33995;48.202;16.260;2023-07-16T11:40:21;32.20;99.90
48206;DHT22;33995;48.202;16.260;2023-07-16T11:42:49;32.20;99.90
48206;DHT22;33995;48.202;16.260;2023-07-16T11:45:17;32.30;99.90
48206;DHT22;33995;48.202;16.260;2023-07-16T11:47:44;32.40;99.90
48206;DHT22;33995;48.202;16.260;2023-07-16T11:50:12;32.40;99.90
48206;DHT22;33995;48.202;16.260;2023-07-16T11:52:40;32.30;99.90
48206;DHT22;33995;48.202;16.260;2023-07-16T11:55:07;32.30;99.90
48206;DHT22;33995;48.202;16.260;2023-07-16T11:57:34;32.40;99.90
48206;DHT22;33995;48.202;16.260;2023-07-16T12:00:03;32.50;99.90
48206;DHT22;33995;48.202;16.260;2023-07-16T12:02:30;32.60;99.50
48206;DHT22;33995;48.202;16.260;2023-07-16T12:04:57;32.60;99.80
48206;DHT22;33995;48.202;16.260;2023-07-16T12:10:01;32.80;99.40
48206;DHT22;33995;48.202;16.260;2023-07-16T12:12:28;32.80;99.10
48206;DHT22;33995;48.202;16.260;2023-07-16T12:14:55;32.80;99.00
48206;DHT22;33995;48.202;16.260;2023-07-16T12:17:22;32.90;99.10
48206;DHT22;33995;48.202;16.260;2023-07-16T12:19:50;32.80;98.70
48206;DHT22;33995;48.202;16.260;2023-07-16T12:22:18;32.80;99.30
48206;DHT22;33995;48.202;16.260;2023-07-16T12:24:46;32.70;99.40
48206;DHT22;33995;48.202;16.260;2023-07-16T12:27:14;32.70;98.90
48206;DHT22;33995;48.202;16.260;2023-07-16T12:29:42;32.60;98.70
48206;DHT22;33995;48.202;16.260;2023-07-16T12:32:10;32.60;98.80
48206;DHT22;33995;48.202;16.260;2023-07-16T12:34:37;32.50;99.90
48206;DHT22;33995;48.202;16.260;2023-07-16T12:37:05;32.30;99.10
48206;DHT22;33995;48.202;16.260;2023-07-16T12:39:33;32.40;99.10
48206;DHT22;33995;48.202;16.260;2023-07-16T12:42:01;32.40;99.10
48206;DHT22;33995;48.202;16.260;2023-07-16T12:44:29;32.50;98.60
48206;DHT22;33995;48.202;16.260;2023-07-16T12:46:56;32.50;99.50
48206;DHT22;33995;48.202;16.260;2023-07-16T12:49:23;32.40;98.90
48206;DHT22;33995;48.202;16.260;2023-07-16T12:51:51;32.20;99.10
48206;DHT22;33995;48.202;16.260;2023-07-16T12:54:18;32.20;99.00
48206;DHT22;33995;48.202;16.260;2023-07-16T12:56:45;32.20;99.80
48206;DHT22;33995;48.202;16.260;2023-07-16T12:59:12;32.40;99.30
48206;DHT22;33995;48.202;16.260;2023-07-16T13:01:39;32.50;99.60
48206;DHT22;33995;48.202;16.260;2023-07-16T13:04:06;32.60;99.50
48206;DHT22;33995;48.202;16.260;2023-07-16T13:06:35;32.60;97.90
48206;DHT22;33995;48.202;16.260;2023-07-16T13:09:03;32.60;98.00
48206;DHT22;33995;48.202;16.260;2023-07-16T13:11:32;32.40;98.50
48206;DHT22;33995;48.202;16.260;2023-07-16T13:14:01;32.40;98.30
48206;DHT22;33995;48.202;16.260;2023-07-16T13:16:29;32.40;98.00
48206;DHT22;33995;48.202;16.260;2023-07-16T13:18:56;32.50;98.00
48206;DHT22;33995;48.202;16.260;2023-07-16T13:21:24;32.50;98.30
48206;DHT22;33995;48.202;16.260;2023-07-16T13:23:53;32.60;97.80
48206;DHT22;33995;48.202;16.260;2023-07-16T13:26:21;32.60;97.50
48206;DHT22;33995;48.202;16.260;2023-07-16T13:28:54;32.60;98.00
48206;DHT22;33995;48.202;16.260;2023-07-16T13:31:22;32.60;97.60
48206;DHT22;33995;48.202;16.260;2023-07-16T13:33:51;32.60;97.60
48206;DHT22;33995;48.202;16.260;2023-07-16T13:36:20;32.60;97.60
48206;DHT22;33995;48.202;16.260;2023-07-16T13:38:48;32.60;97.70
48206;DHT22;33995;48.202;16.260;2023-07-16T13:41:18;32.60;97.80
48206;DHT22;33995;48.202;16.260;2023-07-16T13:43:47;32.80;98.10
48206;DHT22;33995;48.202;16.260;2023-07-16T13:46:15;32.80;97.60
48206;DHT22;33995;48.202;16.260;2023-07-16T13:48:44;32.90;97.40
48206;DHT22;33995;48.202;16.260;2023-07-16T13:51:24;33.00;97.40
48206;DHT22;33995;48.202;16.260;2023-07-16T13:53:53;33.00;97.20
48206;DHT22;33995;48.202;16.260;2023-07-16T13:56:21;33.00;97.30
48206;DHT22;33995;48.202;16.260;2023-07-16T13:58:50;32.90;97.30
48206;DHT22;33995;48.202;16.260;2023-07-16T14:01:22;32.90;96.80
48206;DHT22;33995;48.202;16.260;2023-07-16T14:03:51;32.80;97.20
48206;DHT22;33995;48.202;16.260;2023-07-16T14:06:20;32.90;97.20
48206;DHT22;33995;48.202;16.260;2023-07-16T14:08:50;33.00;97.10
48206;DHT22;33995;48.202;16.260;2023-07-16T14:11:22;33.00;96.70
48206;DHT22;33995;48.202;16.260;2023-07-16T14:13:54;33.10;96.60
48206;DHT22;33995;48.202;16.260;2023-07-16T14:16:26;33.20;96.70
48206;DHT22;33995;48.202;16.260;2023-07-16T14:18:55;33.10;96.60
48206;DHT22;33995;48.202;16.260;2023-07-16T14:21:24;33.10;96.20
48206;DHT22;33995;48.202;16.260;2023-07-16T14:23:55;33.20;95.90
48206;DHT22;33995;48.202;16.260;2023-07-16T14:26:24;33.10;96.00
48206;DHT22;33995;48.202;16.260;2023-07-16T14:28:54;33.00;96.10
48206;DHT22;33995;48.202;16.260;2023-07-16T14:31:22;32.90;96.20
48206;DHT22;33995;48.202;16.260;2023-07-16T14:33:51;32.90;96.40
48206;DHT22;33995;48.202;16.260;2023-07-16T14:36:20;32.80;96.00
48206;DHT22;33995;48.202;16.260;2023-07-16T14:38:52;32.80;96.80
48206;DHT22;33995;48.202;16.260;2023-07-16T14:41:21;32.90;96.10
48206;DHT22;33995;48.202;16.260;2023-07-16T14:43:49;32.90;96.20
48206;DHT22;33995;48.202;16.260;2023-07-16T14:46:19;33.00;96.40
48206;DHT22;33995;48.202;16.260;2023-07-16T14:48:48;33.00;95.90
48206;DHT22;33995;48.202;16.260;2023-07-16T14:51:16;33.10;96.60
48206;DHT22;33995;48.202;16.260;2023-07-16T14:53:45;33.10;95.80
48206;DHT22;33995;48.202;16.260;2023-07-16T14:56:14;33.10;96.10
48206;DHT22;33995;48.202;16.260;2023-07-16T14:58:43;33.10;96.10
48206;DHT22;33995;48.202;16.260;2023-07-16T15:01:15;33.00;96.00
48206;DHT22;33995;48.202;16.260;2023-07-16T15:03:48;32.90;95.30
48206;DHT22;33995;48.202;16.260;2023-07-16T15:06:18;32.80;95.20
48206;DHT22;33995;48.202;16.260;2023-07-16T15:08:50;32.80;95.00
48206;DHT22;33995;48.202;16.260;2023-07-16T15:11:19;32.70;96.20
48206;DHT22;33995;48.202;16.260;2023-07-16T15:13:48;32.70;95.10
48206;DHT22;33995;48.202;16.260;2023-07-16T15:16:16;32.60;95.00
48206;DHT22;33995;48.202;16.260;2023-07-16T15:18:45;32.60;95.20
48206;DHT22;33995;48.202;16.260;2023-07-16T15:21:14;32.60;95.10
48206;DHT22;33995;48.202;16.260;2023-07-16T15:23:43;32.60;95.90
48206;DHT22;33995;48.202;16.260;2023-07-16T15:26:13;32.50;95.50
48206;DHT22;33995;48.202;16.260;2023-07-16T15:28:52;32.50;94.50
48206;DHT22;33995;48.202;16.260;2023-07-16T15:31:38;32.50;95.30
48206;DHT22;33995;48.202;16.260;2023-07-16T15:34:10;32.50;94.60
48206;DHT22;33995;48.202;16.260;2023-07-16T15:36:39;32.40;94.60